createdAt,value
2018-12-09T00:00:21.850Z,11.93
2018-12-09T00:02:50.140Z,11.45
2018-12-09T00:05:18.446Z,12.05
2018-12-09T00:07:46.884Z,12.40
2018-12-09T00:10:15.223Z,11.97
2018-12-09T00:12:43.432Z,14.53
2018-12-09T00:15:11.850Z,12.05
2018-12-09T00:17:40.233Z,13.60
2018-12-09T00:20:09.554Z,19.40
2018-12-09T00:22:38.173Z,18.05
2018-12-09T00:25:06.593Z,14.03
2018-12-09T00:27:41.269Z,11.85
2018-12-09T00:30:19.109Z,12.88
2018-12-09T00:32:48.925Z,14.07
2018-12-09T00:35:17.188Z,11.68
2018-12-09T00:37:45.651Z,11.78
2018-12-09T00:40:13.891Z,9.25
2018-12-09T00:42:43.653Z,10.78
2018-12-09T00:45:12.262Z,10.58
2018-12-09T00:47:40.553Z,13.95
2018-12-09T00:50:08.860Z,12.47
2018-12-09T00:52:37.088Z,11.55
2018-12-09T00:55:06.408Z,15.35
2018-12-09T00:57:34.610Z,10.50
2018-12-09T01:00:07.350Z,9.90
2018-12-09T01:02:35.620Z,10.80
2018-12-09T01:05:03.969Z,9.28
2018-12-09T01:07:32.259Z,7.67
2018-12-09T01:10:00.453Z,6.55
2018-12-09T01:12:28.606Z,6.53
2018-12-09T01:14:56.868Z,8.45
2018-12-09T01:17:25.013Z,8.33
2018-12-09T01:19:53.243Z,8.45
2018-12-09T01:22:21.503Z,6.20
2018-12-09T01:24:49.652Z,7.80
2018-12-09T01:27:17.907Z,8.95
2018-12-09T01:29:46.438Z,8.38
2018-12-09T01:32:14.705Z,6.33
2018-12-09T01:34:43.027Z,7.47
2018-12-09T01:37:11.283Z,4.80
2018-12-09T01:39:39.911Z,5.35
2018-12-09T01:42:08.206Z,2.25
2018-12-09T01:44:36.627Z,1.60
2018-12-09T01:47:05.029Z,2.52
2018-12-09T01:49:33.254Z,4.35
2018-12-09T01:52:01.514Z,5.12
2018-12-09T01:54:29.835Z,1.45
2018-12-09T01:56:58.186Z,1.35
2018-12-09T01:59:26.426Z,2.80
2018-12-09T02:01:54.911Z,1.45
2018-12-09T02:04:23.241Z,2.17
2018-12-09T02:06:51.521Z,2.20
2018-12-09T02:09:19.844Z,1.67
2018-12-09T02:11:48.174Z,2.08
2018-12-09T02:14:16.415Z,2.72
2018-12-09T02:16:44.762Z,2.12
2018-12-09T02:19:18.432Z,2.30
2018-12-09T02:21:47.177Z,2.42
2018-12-09T02:24:16.298Z,2.85
2018-12-09T02:26:44.689Z,4.40
2018-12-09T02:29:13.036Z,2.02
2018-12-09T02:31:41.458Z,4.50
2018-12-09T02:34:10.056Z,3.98
2018-12-09T02:36:38.402Z,3.02
2018-12-09T02:39:08.020Z,2.08
2018-12-09T02:41:36.279Z,1.92
2018-12-09T02:44:04.741Z,3.92
2018-12-09T02:46:33.343Z,3.92
2018-12-09T02:49:02.017Z,1.50
2018-12-09T02:51:30.477Z,2.87
2018-12-09T02:53:58.808Z,5.10
2018-12-09T02:56:27.155Z,2.00
2018-12-09T02:58:55.736Z,2.47
2018-12-09T03:01:24.462Z,3.33
2018-12-09T03:03:52.821Z,2.27
2018-12-09T03:06:21.318Z,1.62
2018-12-09T03:08:49.593Z,3.47
2018-12-09T03:11:17.898Z,3.35
2018-12-09T03:13:46.124Z,5.15
2018-12-09T03:16:14.442Z,3.72
2018-12-09T03:18:42.722Z,4.53
2018-12-09T03:21:11.231Z,1.92
2018-12-09T03:23:39.453Z,3.33
2018-12-09T03:26:07.977Z,3.80
2018-12-09T03:28:36.180Z,0.88
2018-12-09T03:31:04.445Z,2.85
2018-12-09T03:33:34.506Z,1.40
2018-12-09T03:36:02.879Z,4.60
2018-12-09T03:38:31.240Z,2.30
2018-12-09T03:40:59.515Z,1.45
2018-12-09T03:43:28.203Z,3.40
2018-12-09T03:45:56.504Z,4.55
2018-12-09T03:48:24.766Z,0.78
2018-12-09T03:53:51.951Z,2.75
2018-12-09T03:56:20.099Z,0.88
2018-12-09T03:58:48.381Z,2.87
2018-12-09T04:01:16.621Z,0.40
2018-12-09T04:03:45.051Z,1.65
2018-12-09T04:06:13.406Z,1.17
2018-12-09T04:08:41.749Z,3.62
2018-12-09T04:11:10.022Z,3.22
2018-12-09T04:13:38.135Z,1.70
2018-12-09T04:16:06.456Z,1.27
2018-12-09T04:18:34.625Z,2.17
2018-12-09T04:21:02.953Z,1.42
2018-12-09T04:23:31.282Z,1.20
2018-12-09T04:25:59.885Z,2.20
2018-12-09T04:28:28.181Z,2.98
2018-12-09T04:30:57.138Z,5.20
2018-12-09T04:33:25.406Z,1.82
2018-12-09T04:35:53.655Z,1.80
2018-12-09T04:38:21.805Z,2.62
2018-12-09T04:40:50.016Z,2.45
2018-12-09T04:43:18.230Z,1.85
2018-12-09T04:45:46.517Z,1.80
2018-12-09T04:48:14.693Z,2.25
2018-12-09T04:50:42.932Z,0.95
2018-12-09T04:53:11.090Z,1.70
2018-12-09T04:55:39.211Z,2.15
2018-12-09T04:58:07.476Z,0.47
2018-12-09T05:00:47.232Z,2.15
2018-12-09T05:03:15.415Z,3.12
2018-12-09T05:05:43.732Z,2.95
2018-12-09T05:08:11.890Z,1.32
2018-12-09T05:10:40.435Z,3.58
2018-12-09T05:13:08.649Z,2.75
2018-12-09T05:15:36.774Z,0.70
2018-12-09T05:18:04.996Z,2.37
2018-12-09T05:20:33.237Z,3.40
2018-12-09T05:23:01.711Z,2.02
2018-12-09T05:25:30.232Z,1.40
2018-12-09T05:27:58.510Z,1.45
2018-12-09T05:30:26.799Z,1.02
2018-12-09T05:32:55.189Z,3.15
2018-12-09T05:35:25.230Z,1.57
2018-12-09T05:37:53.494Z,3.65
2018-12-09T05:40:21.731Z,1.22
2018-12-09T05:42:49.963Z,1.10
2018-12-09T05:45:18.254Z,0.93
2018-12-09T05:47:46.569Z,1.65
2018-12-09T05:50:14.833Z,4.58
2018-12-09T05:52:43.003Z,2.75
2018-12-09T05:55:11.273Z,3.30
2018-12-09T05:57:39.400Z,4.45
2018-12-09T06:00:07.878Z,4.50
2018-12-09T06:02:51.206Z,2.45
2018-12-09T06:05:19.419Z,2.80
2018-12-09T06:07:47.666Z,7.42
2018-12-09T06:10:15.993Z,2.70
2018-12-09T06:12:44.240Z,3.17
2018-12-09T06:15:12.689Z,2.67
2018-12-09T06:17:40.943Z,4.60
2018-12-09T06:20:09.551Z,7.53
2018-12-09T06:22:37.817Z,3.62
2018-12-09T06:25:06.130Z,3.60
2018-12-09T06:27:34.379Z,3.35
2018-12-09T06:30:02.789Z,3.27
2018-12-09T06:32:31.366Z,3.40
2018-12-09T06:34:59.757Z,3.42
2018-12-09T06:37:28.000Z,7.70
2018-12-09T06:39:56.268Z,3.00
2018-12-09T06:42:24.477Z,3.42
2018-12-09T06:44:52.757Z,6.65
2018-12-09T06:47:20.978Z,4.20
2018-12-09T06:49:49.311Z,4.42
2018-12-09T06:52:17.497Z,8.23
2018-12-09T06:54:45.691Z,7.50
2018-12-09T06:57:14.177Z,3.50
2018-12-09T06:59:42.522Z,6.58
2018-12-09T07:02:10.882Z,5.37
2018-12-09T07:04:39.124Z,2.72
2018-12-09T07:07:07.338Z,4.90
2018-12-09T07:09:35.939Z,3.10
2018-12-09T07:12:04.305Z,6.60
2018-12-09T07:14:32.627Z,5.28
2018-12-09T07:17:00.801Z,3.72
2018-12-09T07:19:28.938Z,4.03
2018-12-09T07:21:57.458Z,7.35
2018-12-09T07:24:25.635Z,3.50
2018-12-09T07:26:53.846Z,6.40
2018-12-09T07:29:22.032Z,7.03
2018-12-09T07:31:50.220Z,5.58
2018-12-09T07:34:18.814Z,7.90
2018-12-09T07:36:47.125Z,2.75
2018-12-09T07:39:15.361Z,9.13
2018-12-09T07:41:47.262Z,9.68
2018-12-09T07:44:15.604Z,6.28
2018-12-09T07:46:49.695Z,5.65
2018-12-09T07:49:18.076Z,3.37
2018-12-09T07:51:46.327Z,6.12
2018-12-09T07:54:14.677Z,7.10
2018-12-09T07:56:44.731Z,11.55
2018-12-09T07:59:18.834Z,6.03
2018-12-09T08:01:47.130Z,8.93
2018-12-09T08:04:37.735Z,5.62
2018-12-09T08:07:06.010Z,5.97
2018-12-09T08:09:34.294Z,9.20
2018-12-09T08:12:02.526Z,8.83
2018-12-09T08:14:30.732Z,6.10
2018-12-09T08:16:58.914Z,9.25
2018-12-09T08:19:30.728Z,6.40
2018-12-09T08:22:05.066Z,5.58
2018-12-09T08:24:39.615Z,11.53
2018-12-09T08:27:25.978Z,12.25
2018-12-09T08:33:04.182Z,8.95
2018-12-09T08:38:33.770Z,7.53
2018-12-09T08:41:03.656Z,11.57
2018-12-09T08:43:44.115Z,8.73
2018-12-09T08:46:20.242Z,7.60
2018-12-09T08:49:00.585Z,6.78
2018-12-09T08:51:34.831Z,6.00
2018-12-09T08:57:09.622Z,11.53
2018-12-09T09:02:34.964Z,13.50
2018-12-09T09:05:09.968Z,17.52
2018-12-09T09:07:44.717Z,11.15
2018-12-09T09:10:29.848Z,11.73
2018-12-09T09:13:20.943Z,8.75
2018-12-09T09:15:53.073Z,5.37
2018-12-09T09:18:24.886Z,4.03
2018-12-09T09:20:59.977Z,4.30
2018-12-09T09:23:36.112Z,3.02
2018-12-09T09:26:07.559Z,2.05
2018-12-09T09:28:43.047Z,2.00
2018-12-09T09:31:18.231Z,3.35
2018-12-09T09:33:52.182Z,3.05
2018-12-09T09:36:20.486Z,1.70
2018-12-09T09:39:05.297Z,2.45
2018-12-09T09:41:33.556Z,2.87
2018-12-09T09:44:01.957Z,3.33
2018-12-09T09:46:48.669Z,3.85
2018-12-09T09:49:20.270Z,4.35
2018-12-09T09:51:48.601Z,2.95
2018-12-09T09:54:16.755Z,6.40
2018-12-09T09:56:46.552Z,8.93
2018-12-09T09:59:14.943Z,9.48
2018-12-09T10:01:43.185Z,11.73
2018-12-09T10:04:11.510Z,8.85
2018-12-09T10:06:39.785Z,12.18
2018-12-09T10:09:08.052Z,13.55
2018-12-09T10:11:36.488Z,8.98
2018-12-09T10:14:06.115Z,14.73
2018-12-09T10:16:51.620Z,8.58
2018-12-09T10:19:27.408Z,2.65
2018-12-09T10:22:07.306Z,2.55
2018-12-09T10:24:43.368Z,3.33
2018-12-09T10:27:21.277Z,1.05
2018-12-09T10:30:00.459Z,0.98
2018-12-09T10:32:39.534Z,1.95
2018-12-09T10:35:08.544Z,1.17
2018-12-09T10:37:37.451Z,1.67
2018-12-09T10:40:06.233Z,1.80
2018-12-09T10:42:35.576Z,2.50
2018-12-09T10:45:04.466Z,3.10
2018-12-09T10:47:32.822Z,6.28
2018-12-09T10:50:01.000Z,5.03
2018-12-09T10:52:29.417Z,2.55
2018-12-09T10:54:57.917Z,4.42
2018-12-09T10:57:26.309Z,4.60
2018-12-09T10:59:54.489Z,5.92
2018-12-09T11:02:30.109Z,3.95
2018-12-09T11:04:58.648Z,3.83
2018-12-09T11:07:27.061Z,4.37
2018-12-09T11:09:55.477Z,9.08
2018-12-09T11:12:24.399Z,15.30
2018-12-09T11:14:52.845Z,12.73
2018-12-09T11:17:31.135Z,8.70
2018-12-09T11:19:59.471Z,11.25
2018-12-09T11:22:27.799Z,7.00
2018-12-09T11:24:56.346Z,9.18
2018-12-09T11:27:28.419Z,10.45
2018-12-09T11:29:58.691Z,12.58
2018-12-09T11:35:26.955Z,8.78
2018-12-09T11:38:07.884Z,6.33
2018-12-09T11:40:47.613Z,6.83
2018-12-09T11:43:30.136Z,4.75
2018-12-09T11:45:59.072Z,3.85
2018-12-09T11:48:33.319Z,9.58
2018-12-09T11:51:07.074Z,9.18
2018-12-09T11:53:36.648Z,2.25
2018-12-09T11:56:05.100Z,2.45
2018-12-09T11:58:33.358Z,1.90
2018-12-09T12:01:01.650Z,3.02
2018-12-09T12:03:29.969Z,3.00
2018-12-09T12:09:01.579Z,4.15
2018-12-09T12:11:43.570Z,5.92
2018-12-09T12:14:11.869Z,7.35
2018-12-09T12:16:40.076Z,8.25
2018-12-09T12:19:08.386Z,6.50
2018-12-09T12:21:43.502Z,7.40
2018-12-09T12:24:15.256Z,4.67
2018-12-09T12:26:43.636Z,6.12
2018-12-09T12:29:11.934Z,4.10
2018-12-09T12:31:40.432Z,3.22
2018-12-09T12:34:08.953Z,7.65
2018-12-09T12:36:41.198Z,9.78
2018-12-09T12:42:05.062Z,6.78
2018-12-09T12:47:51.607Z,3.15
2018-12-09T12:50:30.042Z,6.90
2018-12-09T12:52:59.001Z,11.75
2018-12-09T12:55:29.460Z,7.42
2018-12-09T12:57:57.986Z,6.92
2018-12-09T13:00:26.423Z,4.62
2018-12-09T13:02:55.752Z,6.42
2018-12-09T13:05:40.565Z,9.13
2018-12-09T13:08:09.218Z,4.80
2018-12-09T13:10:38.704Z,5.65
2018-12-09T13:13:07.120Z,6.00
2018-12-09T13:15:35.331Z,4.90
2018-12-09T13:18:03.668Z,7.55
2018-12-09T13:20:31.906Z,5.58
2018-12-09T13:23:00.324Z,10.00
2018-12-09T13:25:37.376Z,4.85
2018-12-09T13:28:06.699Z,4.92
2018-12-09T13:30:40.696Z,16.10
2018-12-09T13:33:24.895Z,6.53
2018-12-09T13:36:08.575Z,7.12
2018-12-09T13:38:37.452Z,11.00
2018-12-09T13:44:15.210Z,12.50
2018-12-09T13:49:42.185Z,8.15
2018-12-09T13:55:58.634Z,8.43
2018-12-09T14:04:28.072Z,4.85
2018-12-09T14:07:06.917Z,7.83
2018-12-09T14:12:52.802Z,7.65
2018-12-09T14:21:20.428Z,9.18
2018-12-09T14:23:48.833Z,6.15
2018-12-09T14:26:19.775Z,6.37
2018-12-09T14:28:56.203Z,5.22
2018-12-09T14:34:20.431Z,2.25
2018-12-09T14:36:48.714Z,4.97
2018-12-09T14:39:18.761Z,2.98
2018-12-09T14:41:49.510Z,8.03
2018-12-09T14:44:18.163Z,11.12
2018-12-09T14:46:49.641Z,9.95
2018-12-09T14:52:25.885Z,8.43
2018-12-09T14:55:07.744Z,7.53
2018-12-09T14:57:36.526Z,10.18
2018-12-09T15:00:16.898Z,10.28
2018-12-09T15:02:57.195Z,8.95
2018-12-09T15:17:15.319Z,14.47
2018-12-09T15:19:51.614Z,10.08
2018-12-09T15:22:34.322Z,13.15
2018-12-09T15:25:02.863Z,9.33
2018-12-09T15:27:38.748Z,11.38
2018-12-09T15:30:13.321Z,12.18
2018-12-09T15:35:52.123Z,14.90
2018-12-09T15:38:20.636Z,19.55
2018-12-09T15:40:50.162Z,16.85
2018-12-09T15:43:20.272Z,9.80
2018-12-09T15:46:07.419Z,14.18
2018-12-09T15:48:36.331Z,21.15
2018-12-09T15:51:09.512Z,16.37
2018-12-09T15:59:50.839Z,22.05
2018-12-09T16:05:44.462Z,15.70
2018-12-09T16:14:29.952Z,13.32
2018-12-09T16:18:49.207Z,24.50
2018-12-09T16:24:42.265Z,17.87
2018-12-09T16:33:35.691Z,8.55
2018-12-09T16:36:19.244Z,18.62
2018-12-09T16:38:59.098Z,12.10
2018-12-09T16:41:49.848Z,11.10
2018-12-09T16:44:32.267Z,10.82
2018-12-09T16:47:02.769Z,17.77
2018-12-09T16:49:31.441Z,18.87
2018-12-09T16:52:00.007Z,13.93
2018-12-09T16:54:50.878Z,11.22
2018-12-09T16:57:19.146Z,19.62
2018-12-09T16:59:48.468Z,12.18
2018-12-09T17:02:16.771Z,11.53
2018-12-09T17:04:45.107Z,16.90
2018-12-09T17:07:41.920Z,23.55
2018-12-09T17:10:06.842Z,16.93
2018-12-09T17:12:39.974Z,14.95
2018-12-09T17:18:08.697Z,13.88
2018-12-09T17:20:48.916Z,12.75
2018-12-09T17:23:17.511Z,23.27
2018-12-09T17:25:54.448Z,17.90
2018-12-09T17:28:23.361Z,12.45
2018-12-09T17:30:52.146Z,21.12
2018-12-09T17:33:27.682Z,9.60
2018-12-09T17:36:14.274Z,18.32
2018-12-09T17:39:02.618Z,11.00
2018-12-09T17:44:39.972Z,26.82
2018-12-09T17:47:16.107Z,15.50
2018-12-09T17:49:52.976Z,20.23
2018-12-09T17:55:47.128Z,18.30
2018-12-09T18:10:50.089Z,14.93
2018-12-09T18:13:31.130Z,11.97
2018-12-09T18:16:10.628Z,19.15
2018-12-09T18:18:56.795Z,18.23
2018-12-09T18:21:43.812Z,16.60
2018-12-09T18:30:40.227Z,11.03
2018-12-09T18:33:30.742Z,17.55
2018-12-09T18:36:18.431Z,14.90
2018-12-09T18:38:53.944Z,10.28
2018-12-09T18:41:30.201Z,23.45
2018-12-09T18:44:04.379Z,12.78
2018-12-09T18:46:42.855Z,15.88
2018-12-09T18:49:21.549Z,8.90
2018-12-09T18:52:00.120Z,9.18
2018-12-09T18:54:34.411Z,16.97
2018-12-09T18:57:11.175Z,15.78
2018-12-09T18:59:47.992Z,12.13
2018-12-09T19:02:35.599Z,21.07
2018-12-09T19:05:11.870Z,10.48
2018-12-09T19:10:42.435Z,18.45
2018-12-09T19:13:10.724Z,10.80
2018-12-09T19:15:39.211Z,15.18
2018-12-09T19:21:13.207Z,15.20
2018-12-09T19:23:51.027Z,11.55
2018-12-09T19:26:30.567Z,16.00
2018-12-09T19:29:09.854Z,9.03
2018-12-09T19:31:48.236Z,10.72
2018-12-09T19:34:27.363Z,8.38
2018-12-09T19:37:05.514Z,13.85
2018-12-09T19:39:46.672Z,11.18
2018-12-09T19:42:22.403Z,17.37
2018-12-09T19:45:00.756Z,9.68
2018-12-09T19:47:39.600Z,14.70
2018-12-09T19:50:17.283Z,13.22
2018-12-09T19:52:56.179Z,4.65
2018-12-09T19:55:35.046Z,10.98
2018-12-09T19:58:16.275Z,17.77
2018-12-09T20:00:53.483Z,9.03
2018-12-09T20:03:28.302Z,22.20
2018-12-09T20:05:56.670Z,9.83
2018-12-09T20:08:37.885Z,15.43
2018-12-09T20:14:08.281Z,19.07
2018-12-09T20:16:36.744Z,15.25
2018-12-09T20:19:05.194Z,12.18
2018-12-09T20:21:37.287Z,9.05
2018-12-09T20:30:17.234Z,12.90
2018-12-09T20:38:35.783Z,16.12
2018-12-09T20:41:04.521Z,13.25
2018-12-09T20:43:33.326Z,21.80
2018-12-09T20:46:01.833Z,14.15
2018-12-09T20:48:30.164Z,14.13
2018-12-09T20:50:58.522Z,19.85
2018-12-09T20:53:26.716Z,26.82
2018-12-09T20:55:55.068Z,19.75
2018-12-09T20:58:23.339Z,15.60
2018-12-09T21:00:51.621Z,13.53
2018-12-09T21:03:19.905Z,12.00
2018-12-09T21:05:49.677Z,18.07
2018-12-09T21:08:18.447Z,19.75
2018-12-09T21:10:46.762Z,18.82
2018-12-09T21:13:15.213Z,20.45
2018-12-09T21:15:43.629Z,12.13
2018-12-09T21:18:12.575Z,25.62
2018-12-09T21:20:40.976Z,14.25
2018-12-09T21:23:09.444Z,18.50
2018-12-09T21:25:37.675Z,16.87
2018-12-09T21:28:06.028Z,14.23
2018-12-09T21:30:34.761Z,14.60
2018-12-09T21:33:03.151Z,13.50
2018-12-09T21:35:32.072Z,25.32
2018-12-09T21:38:00.354Z,14.98
2018-12-09T21:40:28.644Z,25.30
2018-12-09T21:43:00.988Z,21.10
2018-12-09T21:45:29.388Z,25.25
2018-12-09T21:47:57.710Z,20.75
2018-12-09T21:50:29.876Z,20.45
2018-12-09T21:52:58.396Z,16.73
2018-12-09T21:58:35.968Z,30.82
2018-12-09T22:01:04.338Z,21.37
2018-12-09T22:03:41.348Z,21.50
2018-12-09T22:09:06.715Z,16.00
2018-12-09T22:11:35.202Z,26.57
2018-12-09T22:14:03.514Z,29.75
2018-12-09T22:16:31.770Z,19.17
2018-12-09T22:19:00.139Z,18.73
2018-12-09T22:21:34.804Z,23.65
2018-12-09T22:24:08.843Z,19.20
2018-12-09T22:26:43.934Z,23.62
2018-12-09T22:29:18.171Z,24.20
2018-12-09T22:31:52.504Z,27.35
2018-12-09T22:34:27.271Z,16.17
2018-12-09T22:37:01.046Z,20.55
2018-12-09T22:39:49.427Z,18.92
2018-12-09T22:42:27.541Z,24.23
2018-12-09T22:45:01.535Z,21.55
2018-12-09T22:47:35.735Z,9.83
2018-12-09T22:50:11.384Z,18.10
2018-12-09T22:55:41.785Z,16.52
2018-12-09T22:58:10.227Z,18.02
2018-12-09T23:00:45.275Z,21.05
2018-12-09T23:03:23.681Z,15.32
2018-12-09T23:14:43.943Z,10.63
2018-12-09T23:17:12.120Z,14.55
2018-12-09T23:19:40.478Z,11.35
2018-12-09T23:22:27.096Z,11.63
2018-12-09T23:25:07.346Z,8.73
2018-12-09T23:27:41.790Z,5.10
2018-12-09T23:30:18.243Z,6.65
2018-12-09T23:32:50.628Z,9.35
2018-12-09T23:35:22.997Z,7.55
2018-12-09T23:38:07.233Z,11.30
2018-12-09T23:40:36.980Z,11.33
2018-12-09T23:43:05.246Z,10.60
2018-12-09T23:48:36.380Z,9.28
2018-12-09T23:51:05.329Z,11.18
2018-12-09T23:53:52.305Z,7.50
2018-12-09T23:56:34.810Z,8.90
2018-12-09T23:59:20.424Z,10.18
